Latest Weather Observations for PWS C

IDT60801

Issued at 5:21 am EDT Sunday 25 October 2020 (issued every 10 minutes, with the page automatically refreshed every 10 minutes)

About weather observations | Map of weather stations | Latest weather observations for TAS | Other Formats
Station Details ID: 250094 Name: TAS PARKS WILDLIFE PORTABLE C Lat: -43.42 Lon: 146.15 Height: 25.0 m

Portable automatic weather stations (PAWS) are operated by other organisations, such as Fire and Emergency Services, and are included here by agreement. Portable stations may be deployed to a location for a short period and their location may be subject to change without notice. Wind observations from these stations are provided from heights of either three (3) or ten (10) metres above ground level (AGL).

Data from the previous 72 hours. | See also: Recent months for locations in Tasmania
Date/Time
EDT
Temp
°C
App
Temp
°C
Dew
Point
°C
Rel
Hum
%
Delta-T
°C
Wind Press
QNH
hPa
Press
MSL
hPa
Rain since
9am
mm
Dir  Spd
km/h
Gust
km/h
Spd
kts
Gust
kts
25/05:10am 4.0 0.2 1.7 85 0.9 NNW 11 13 6 7 - - 3.4
25/05:00am 4.0 0.9 1.4 83 1.0 NNW 7 9 4 5 - - 3.4
25/04:50am 4.0 1.1 1.3 82 1.1 NW 6 7 3 4 - - 3.4
25/04:40am 3.5 0.3 0.9 83 1.0 WNW 7 9 4 5 - - 3.4
25/04:30am 3.7 1.1 1.0 82 1.0 N 4 6 2 3 - - 3.4
25/04:20am 3.5 0.5 0.7 82 1.1 E 6 11 3 6 - - 3.4
25/04:10am 4.1 0.5 0.7 78 1.3 SSE 9 20 5 11 - - 3.4
25/04:00am 4.0 1.0 0.8 80 1.2 WSW 6 6 3 3 - - 3.4
25/03:50am 3.8 0.6 0.5 79 1.3 W 7 9 4 5 - - 3.4
25/03:40am 4.3 1.7 0.7 77 1.4 S 4 6 2 3 - - 3.4
25/03:30am 4.3 1.1 0.7 77 1.4 ESE 7 13 4 7 - - 3.4
25/03:20am 3.9 -0.1 0.6 79 1.3 S 11 13 6 7 - - 3.4
25/03:10am 3.5 -0.5 0.5 81 1.1 SSW 11 11 6 6 - - 3.4
25/03:00am 3.5 -0.9 0.3 79 1.2 SSW 13 15 7 8 - - 3.4
25/02:50am 3.7 -1.4 0.6 80 1.2 SSW 17 17 9 9 - - 3.4
25/02:40am 3.8 -1.3 0.9 81 1.1 SSW 17 17 9 9 - - 3.4
25/02:30am 4.2 -0.5 1.2 81 1.2 SSW 15 17 8 9 - - 3.4
25/02:20am 4.6 -0.4 1.4 80 1.3 SSW 17 20 9 11 - - 3.4
25/02:10am 4.7 -0.9 1.5 80 1.3 S 20 26 11 14 - - 3.4
25/02:00am 3.7 0.4 0.2 78 1.3 SSE 7 13 4 7 - - 3.4
25/01:50am 3.7 0.9 -0.1 76 1.4 S 4 6 2 3 - - 3.2
25/01:40am 3.8 1.1 0.5 79 1.3 SSW 4 6 2 3 - - 3.2
25/01:30am 3.9 1.2 0.4 78 1.3 W 4 6 2 3 - - 3.2
25/01:20am 4.0 1.3 0.5 78 1.3 WNW 4 6 2 3 - - 3.2
25/01:10am 3.9 0.8 0.3 77 1.4 NW 6 6 3 3 - - 3.2
25/01:00am 4.0 0.9 0.4 77 1.4 N 6 6 3 3 - - 3.2
25/12:50am 3.8 0.8 0.5 79 1.3 NE 6 7 3 4 - - 3.2
25/12:40am 3.9 1.2 0.6 79 1.3 N 4 6 2 3 - - 3.2
25/12:30am 3.8 0.8 0.5 79 1.3 WNW 6 7 3 4 - - 3.2
25/12:20am 3.9 0.9 0.6 79 1.3 N 6 6 3 3 - - 3.2
25/12:10am 3.7 0.1 0.8 81 1.1 NE 9 13 5 7 - - 3.2
25/12:00am 4.2 1.2 0.9 79 1.3 NNE 6 9 3 5 - - 3.2
 
Date/Time
EDT
Temp
°C
App
Temp
°C
Dew
Point
°C
Rel
Hum
%
Delta-T
°C
Wind Press
QNH
hPa
Press
MSL
hPa
Rain since
9am
mm
Dir  Spd
km/h
Gust
km/h
Spd
kts
Gust
kts
24/11:50pm 4.6 2.0 0.8 76 1.5 W 4 6 2 3 - - 3.2
24/11:40pm 4.8 1.8 0.7 75 1.6 S 6 7 3 4 - - 3.2
24/11:30pm 4.6 1.5 1.1 78 1.4 S 7 9 4 5 - - 3.2
24/11:20pm 4.6 -0.1 1.2 78 1.3 S 15 24 8 13 - - 3.2
24/11:10pm 4.8 1.5 0.1 71 1.8 S 7 9 4 5 - - 3.0
24/11:00pm 4.5 1.2 0.0 72 1.7 SSE 7 11 4 6 - - 3.0
24/10:50pm 4.4 1.1 -0.1 72 1.7 S 7 9 4 5 - - 3.0
24/10:40pm 4.4 1.3 0.2 74 1.6 S 6 7 3 4 - - 3.0
24/10:30pm 4.5 1.5 0.5 75 1.5 SSE 6 7 3 4 - - 3.0
24/10:20pm 4.7 1.7 0.8 76 1.5 S 6 7 3 4 - - 3.0
24/10:10pm 4.8 1.8 1.1 77 1.4 SSE 6 7 3 4 - - 3.0
24/10:00pm 4.8 1.9 1.3 78 1.4 S 6 7 3 4 - - 3.0
24/09:50pm 4.6 1.7 1.2 78 1.3 S 6 7 3 4 - - 3.0
24/09:40pm 4.6 0.3 1.1 78 1.4 S 13 17 7 9 - - 3.0
24/09:30pm 5.0 -1.0 0.8 74 1.6 S 22 32 12 17 - - 2.8
24/09:20pm 5.9 0.2 0.4 68 2.1 S 20 26 11 14 - - 2.2
24/09:10pm 5.9 0.6 -0.8 62 2.5 SSW 17 20 9 11 - - 2.2
24/09:00pm 6.1 0.8 -0.8 61 2.6 SSW 17 19 9 10 - - 2.2
24/08:50pm 6.3 1.8 -0.3 62 2.5 S 13 17 7 9 - - 2.2
24/08:40pm 6.8 1.2 -0.3 60 2.7 SSW 19 24 10 13 - - 2.2
24/08:30pm 6.9 1.1 -0.3 60 2.8 SSW 20 28 11 15 - - 2.2
24/08:20pm 6.9 1.1 0.0 61 2.7 SSW 20 22 11 12 - - 2.2
24/08:10pm 7.0 1.2 0.2 62 2.7 SSW 20 24 11 13 - - 2.2
24/08:00pm 7.0 0.9 0.2 62 2.7 SSW 22 26 12 14 - - 2.2
24/07:50pm 7.0 3.6 1.7 69 2.2 S 9 11 5 6 - - 2.2
24/07:40pm 7.1 2.9 1.5 67 2.3 S 13 15 7 8 - - 2.2
24/07:30pm 7.2 3.0 1.7 68 2.2 SSW 13 17 7 9 - - 2.2
24/07:20pm 7.3 3.2 2.0 69 2.2 SSW 13 17 7 9 - - 2.2
24/07:10pm 7.5 4.7 2.9 72 1.9 S 7 11 4 6 - - 2.2
24/07:00pm 7.5 4.9 3.3 75 1.8 SE 6 7 3 4 - - 2.2
24/06:50pm 7.1 3.5 3.1 76 1.7 S 11 15 6 8 - - 2.2
24/06:40pm 7.2 2.4 2.7 73 1.9 SW 17 32 9 17 - - 2.2
24/06:30pm 7.5 4.5 3.9 78 1.5 S 9 13 5 7 - - 2.0
24/06:20pm 7.4 3.2 3.7 77 1.6 S 15 26 8 14 - - 2.0
24/06:10pm 7.4 0.6 3.2 75 1.8 SSW 28 33 15 18 - - 2.0
24/06:00pm 8.4 1.9 2.5 66 2.5 SW 26 32 14 17 - - 2.0
24/05:50pm 8.2 0.8 1.7 63 2.7 SW 30 35 16 19 - - 2.0
24/05:40pm 8.8 2.8 3.5 69 2.3 SW 24 30 13 16 - - 2.0
24/05:30pm 8.9 3.7 3.6 69 2.3 SSW 20 26 11 14 - - 1.8
24/05:20pm 8.6 3.6 4.8 77 1.7 SSW 20 32 11 17 - - 1.8
24/05:10pm 8.2 3.8 4.8 79 1.5 SW 17 22 9 12 - - 1.8
24/05:00pm 8.4 2.6 4.4 76 1.8 SW 24 28 13 15 - - 1.8
24/04:50pm 9.5 3.3 4.3 70 2.3 SW 26 35 14 19 - - 1.6
24/04:40pm 9.6 2.2 4.1 68 2.4 SW 32 46 17 25 - - 1.6
24/04:30pm 9.7 1.8 4.5 70 2.3 WSW 35 46 19 25 - - 1.6
24/04:20pm 11.0 3.7 5.5 69 2.5 WSW 33 37 18 20 - - 1.6
24/04:10pm 10.8 3.6 5.1 68 2.6 W 32 39 17 21 - - 1.6
24/04:00pm 9.9 3.5 5.1 72 2.2 WSW 28 37 15 20 - - 1.6
24/03:50pm 10.8 5.0 6.4 74 2.1 WSW 26 35 14 19 - - 1.6
24/03:40pm 10.1 4.7 6.5 78 1.7 W 24 33 13 18 - - 1.6
24/03:30pm 9.4 3.9 5.7 78 1.7 W 24 33 13 18 - - 1.4
24/03:20pm 10.1 5.3 5.6 73 2.1 W 20 30 11 16 - - 1.2
24/03:10pm 8.0 0.4 4.1 76 1.7 W 33 41 18 22 - - 1.2
24/03:00pm 8.2 0.6 3.8 74 1.9 W 33 43 18 23 - - 0.6
24/02:50pm 10.4 1.8 4.4 66 2.7 W 39 52 21 28 - - 0.2
24/02:40pm 12.7 5.4 2.5 50 4.5 WNW 30 39 16 21 - - 0.0
24/02:30pm 12.0 5.1 2.3 51 4.2 WNW 28 30 15 16 - - 0.0
24/02:20pm 12.0 4.1 2.1 50 4.3 WNW 33 39 18 21 - - 0.0
24/02:10pm 11.9 3.1 1.3 48 4.5 W 37 39 20 21 - - 0.0
24/02:00pm 11.3 3.8 4.4 62 3.1 W 33 43 18 23 - - 0.0
24/01:50pm 11.7 3.9 2.8 54 3.9 WNW 33 43 18 23 - - 0.0
24/01:40pm 12.4 5.3 1.1 46 4.8 WNW 28 39 15 21 - - 0.0
24/01:30pm 12.6 5.0 0.7 44 5.0 WNW 30 35 16 19 - - 0.0
24/01:20pm 13.0 4.7 -0.3 40 5.5 WNW 33 41 18 22 - - 0.0
24/01:10pm 12.3 5.6 1.5 47 4.6 WNW 26 37 14 20 - - 0.0
24/01:00pm 12.0 3.2 1.2 47 4.6 W 37 44 20 24 - - 0.0
24/12:50pm 14.0 6.0 0.3 39 5.8 WNW 32 41 17 22 - - 0.0
24/12:40pm 13.4 5.2 0.5 41 5.4 W 33 41 18 22 - - 0.0
24/12:30pm 12.9 3.9 0.3 42 5.3 W 37 41 20 22 - - 0.0
24/12:20pm 13.1 5.3 1.4 45 5.0 W 32 39 17 21 - - 0.0
24/12:10pm 11.8 4.1 2.1 51 4.2 W 32 35 17 19 - - 0.0
24/12:00pm 12.8 5.3 0.9 44 5.0 W 30 44 16 24 - - 0.0
24/11:50am 12.8 4.3 1.1 45 5.0 W 35 44 19 24 - - 0.0
24/11:40am 12.3 4.2 1.2 46 4.7 W 33 39 18 21 - - 0.0
24/11:30am 11.9 3.9 1.6 49 4.4 W 33 41 18 22 - - 0.0
24/11:20am 12.2 4.4 2.0 49 4.4 W 32 37 17 20 - - 0.0
24/11:10am 11.9 4.3 3.1 55 3.9 W 32 37 17 20 - - 0.0
24/11:00am 12.6 5.8 3.0 52 4.2 W 28 35 15 19 - - 0.0
24/10:50am 11.6 4.4 3.2 56 3.7 W 30 37 16 20 - - 0.0
24/10:40am 12.7 5.7 4.2 56 3.9 W 30 35 16 19 - - 0.0
24/10:30am 11.8 6.7 3.2 55 3.8 W 19 24 10 13 - - 0.0
24/10:20am 11.2 4.8 3.4 58 3.4 W 26 33 14 18 - - 0.0
24/10:10am 11.1 5.5 3.5 59 3.3 WNW 22 26 12 14 - - 0.0
24/10:00am 10.6 5.9 3.0 59 3.3 WNW 17 24 9 13 - - 2.2
24/09:50am 10.5 5.5 3.4 61 3.1 W 19 30 10 16 - - 2.2
24/09:40am 10.2 3.7 2.6 59 3.3 W 26 33 14 18 - - 2.2
24/09:30am 10.4 5.3 3.0 60 3.2 W 19 28 10 15 - - 2.2
24/09:20am 10.1 3.7 3.0 61 3.1 W 26 32 14 17 - - 2.2
24/09:10am 10.0 4.4 3.7 65 2.8 W 22 30 12 16 - - 2.2
24/09:00am 10.3 5.9 4.5 67 2.6 W 17 20 9 11 - - 2.2
24/08:50am 10.2 6.1 4.4 67 2.6 W 15 19 8 10 - - 2.2
24/08:40am 9.9 5.9 4.9 71 2.2 W 15 19 8 10 - - 2.2
24/08:30am 9.5 6.4 5.7 77 1.7 W 11 15 6 8 - - 2.2
24/08:20am 9.2 6.6 6.0 80 1.5 W 9 15 5 8 - - 2.2
24/08:10am 9.0 6.4 6.0 81 1.4 W 9 11 5 6 - - 2.2
24/08:00am 9.0 6.0 6.2 82 1.3 WSW 11 19 6 10 - - 2.2
24/07:50am 8.9 4.8 6.1 82 1.3 WSW 17 19 9 10 - - 2.2
24/07:40am 8.8 4.1 6.1 83 1.2 WSW 20 24 11 13 - - 2.2
24/07:30am 8.8 4.3 6.3 84 1.2 WSW 19 22 10 12 - - 2.2
24/07:20am 8.7 5.0 6.3 85 1.1 WSW 15 19 8 10 - - 2.2
24/07:10am 8.9 3.1 6.1 82 1.3 WSW 26 32 14 17 - - 2.0
24/07:00am 8.9 5.2 6.1 82 1.3 W 15 17 8 9 - - 2.0
24/06:50am 9.0 5.3 6.3 83 1.2 WSW 15 20 8 11 - - 2.0
24/06:40am 9.2 6.3 6.4 83 1.3 W 11 15 6 8 - - 2.0
24/06:30am 9.3 6.3 6.1 80 1.5 WSW 11 13 6 7 - - 1.6
24/06:20am 9.5 5.4 6.0 79 1.6 W 17 19 9 10 - - 1.6
24/06:10am 9.3 5.1 5.8 79 1.6 W 17 20 9 11 - - 1.6
24/06:00am 9.1 4.9 5.7 79 1.5 W 17 20 9 11 - - 1.6
24/05:50am 9.1 6.2 6.3 83 1.3 W 11 15 6 8 - - 1.6
24/05:40am 9.4 5.7 6.4 81 1.4 WSW 15 19 8 10 - - 1.6
24/05:30am 9.6 6.2 6.1 79 1.6 W 13 17 7 9 - - 1.6
24/05:20am 9.8 5.6 5.7 75 1.9 W 17 20 9 11 - - 1.6
24/05:10am 9.8 6.4 6.0 77 1.8 W 13 20 7 11 - - 1.6
24/05:00am 9.9 7.0 6.3 78 1.7 W 11 17 6 9 - - 1.6
24/04:50am 10.0 7.9 6.6 79 1.6 WNW 7 9 4 5 - - 1.6
24/04:40am 10.0 7.1 6.7 80 1.5 WNW 11 13 6 7 - - 1.6
24/04:30am 10.1 7.2 6.7 79 1.6 WNW 11 15 6 8 - - 1.6
24/04:20am 10.1 6.4 6.5 78 1.7 WNW 15 17 8 9 - - 1.6
24/04:10am 10.0 6.7 6.6 79 1.6 WNW 13 15 7 8 - - 1.6
24/04:00am 10.0 6.7 6.6 79 1.6 WNW 13 17 7 9 - - 1.6
24/03:50am 10.1 6.5 6.7 79 1.6 WNW 15 17 8 9 - - 1.6
24/03:40am 10.1 6.9 7.0 81 1.5 WNW 13 15 7 8 - - 1.6
24/03:30am 10.1 7.0 7.4 83 1.3 W 13 15 7 8 - - 1.6
24/03:20am 10.1 7.1 7.8 86 1.1 WNW 13 15 7 8 - - 1.6
24/03:10am 10.1 7.2 8.0 87 1.0 WNW 13 17 7 9 - - 1.6
24/03:00am 10.1 7.2 8.3 88 0.9 WNW 13 17 7 9 - - 1.6
24/02:50am 10.1 8.1 8.5 90 0.8 NW 9 9 5 5 - - 1.6
24/02:40am 10.2 8.2 8.5 89 0.8 NNW 9 11 5 6 - - 1.6
24/02:30am 10.3 7.9 8.6 89 0.8 NNW 11 13 6 7 - - 1.6
24/02:20am 10.5 8.1 8.7 89 0.9 NW 11 11 6 6 - - 1.6
24/02:10am 10.6 8.2 8.7 88 0.9 WNW 11 15 6 8 - - 1.4
24/02:00am 10.6 8.2 8.6 87 1.0 NW 11 15 6 8 - - 0.4
24/01:50am 10.6 8.2 8.6 87 1.0 NW 11 13 6 7 - - 0.2
24/01:40am 10.7 7.9 8.5 86 1.1 NW 13 13 7 7 - - 0.2
24/01:30am 10.6 7.8 8.5 87 1.0 NW 13 13 7 7 - - 0.2
24/01:20am 10.7 8.2 8.4 86 1.1 NNW 11 11 6 6 - - 0.2
24/01:10am 10.7 8.6 8.3 85 1.2 NNW 9 11 5 6 - - 0.2
24/01:00am 10.7 7.8 8.2 84 1.2 NW 13 17 7 9 - - 0.2
24/12:50am 10.4 7.2 8.3 87 1.0 WNW 15 17 8 9 - - 0.2
24/12:40am 10.2 7.7 8.3 88 0.9 WNW 11 15 6 8 - - 0.2
24/12:30am 10.2 8.1 8.4 89 0.9 N 9 11 5 6 - - 0.2
24/12:20am 10.2 8.1 8.4 89 0.9 NE 9 9 5 5 - - 0.2
24/12:10am 10.2 8.5 8.2 87 1.0 ENE 7 7 4 4 - - 0.2
24/12:00am 10.3 8.7 8.2 87 1.0 NW 6 7 3 4 - - 0.2
 
Date/Time
EDT
Temp
°C
App
Temp
°C
Dew
Point
°C
Rel
Hum
%
Delta-T
°C
Wind Press
QNH
hPa
Press
MSL
hPa
Rain since
9am
mm
Dir  Spd
km/h
Gust
km/h
Spd
kts
Gust
kts
23/11:50pm 10.4 8.3 8.2 86 1.1 NW 9 11 5 6 - - 0.2
23/11:40pm 10.6 7.8 8.4 86 1.1 NW 13 15 7 8 - - 0.2
23/11:30pm 10.7 7.5 8.4 86 1.1 WNW 15 19 8 10 - - 0.2
23/11:20pm 10.9 7.3 8.5 85 1.2 WNW 17 20 9 11 - - 0.2
23/11:10pm 11.2 7.3 8.6 84 1.3 WNW 19 24 10 13 - - 0.2
23/11:00pm 11.7 9.7 8.5 81 1.6 NW 9 11 5 6 - - 0.0
23/10:50pm 11.8 9.7 8.4 80 1.7 N 9 11 5 6 - - 0.0
23/10:40pm 11.9 9.9 8.5 80 1.7 N 9 11 5 6 - - 0.0
23/10:30pm 11.9 9.5 8.6 80 1.6 N 11 11 6 6 - - 0.0
23/10:20pm 11.9 10.3 8.8 81 1.5 N 7 11 4 6 - - 0.0
23/10:10pm 12.0 10.0 8.7 80 1.6 NNW 9 15 5 8 - - 0.0
23/10:00pm 12.0 9.6 8.6 80 1.7 NW 11 13 6 7 - - 0.0
23/09:50pm 12.0 9.6 8.8 81 1.6 NNW 11 13 6 7 - - 0.0
23/09:40pm 12.0 10.0 8.8 81 1.6 NNW 9 11 5 6 - - 0.0
23/09:30pm 12.1 10.7 8.9 81 1.6 NNW 6 9 3 5 - - 0.0
23/09:20pm 12.2 10.7 9.0 81 1.6 N 7 7 4 4 - - 0.0
23/09:10pm 12.3 9.6 9.1 81 1.6 NNW 13 17 7 9 - - 0.0
23/09:00pm 12.3 9.2 9.0 80 1.7 NW 15 17 8 9 - - 0.0
23/08:50pm 12.3 10.0 9.0 80 1.7 NNW 11 15 6 8 - - 0.0
23/08:40pm 12.3 10.4 8.9 80 1.7 NNW 9 11 5 6 - - 0.0
23/08:30pm 12.4 10.4 8.8 79 1.8 NW 9 11 5 6 - - 0.0
23/08:20pm 12.5 10.5 8.6 77 1.9 WNW 9 13 5 7 - - 0.0
23/08:10pm 12.6 9.8 8.5 76 2.0 NW 13 15 7 8 - - 0.0
23/08:00pm 12.8 9.9 8.2 73 2.3 NW 13 15 7 8 - - 0.0
23/07:50pm 12.9 10.0 8.0 72 2.4 NW 13 15 7 8 - - 0.0
23/07:40pm 13.0 10.1 8.1 72 2.4 NW 13 15 7 8 - - 0.0
23/07:30pm 13.2 10.7 8.2 71 2.5 NNW 11 15 6 8 - - 0.0
23/07:20pm 13.3 10.4 8.1 71 2.6 NW 13 15 7 8 - - 0.0
23/07:10pm 13.4 10.9 8.1 70 2.6 NW 11 15 6 8 - - 0.0
23/07:00pm 13.5 11.0 8.0 69 2.7 WNW 11 17 6 9 - - 0.0
23/06:50pm 13.6 9.9 8.0 69 2.8 WNW 17 20 9 11 - - 0.0
23/06:40pm 13.9 10.2 7.9 67 3.0 WNW 17 22 9 12 - - 0.0
23/06:30pm 14.1 10.0 7.7 65 3.2 WNW 19 26 10 14 - - 0.0
23/06:20pm 14.5 10.4 7.9 64 3.3 W 19 20 10 11 - - 0.0
23/06:10pm 14.5 10.3 7.6 63 3.4 WNW 19 22 10 12 - - 0.0
23/06:00pm 14.5 9.8 7.6 63 3.4 WNW 22 24 12 13 - - 0.0
23/05:50pm 15.3 10.6 7.8 61 3.7 WNW 22 26 12 14 - - 0.0
23/05:40pm 15.4 11.0 7.6 59 3.9 WNW 20 24 11 13 - - 0.0
23/05:30pm 15.4 10.7 7.8 60 3.8 WNW 22 24 12 13 - - 0.0
23/05:20pm 15.6 11.3 7.1 57 4.2 WNW 19 28 10 15 - - 0.0
23/05:10pm 15.8 11.9 7.2 56 4.3 WNW 17 22 9 12 - - 0.0
23/05:00pm 15.4 11.5 7.0 57 4.1 WNW 17 26 9 14 - - 0.0
23/04:50pm 15.6 11.2 7.5 58 4.0 W 20 28 11 15 - - 0.0
23/04:40pm 15.8 11.6 7.3 57 4.2 W 19 24 10 13 - - 0.0
23/04:30pm 16.1 11.7 7.3 56 4.4 W 20 26 11 14 - - 0.0
23/04:20pm 16.3 12.5 7.4 55 4.4 WNW 17 22 9 12 - - 0.0
23/04:10pm 16.1 11.8 7.2 55 4.4 W 19 24 10 13 - - 0.0
23/04:00pm 16.4 12.2 7.4 55 4.5 W 19 22 10 12 - - 0.0
23/03:50pm 16.6 12.1 7.1 53 4.7 WNW 20 22 11 12 - - 0.0
23/03:40pm 16.3 11.7 6.6 52 4.8 NW 20 24 11 13 - - 0.0
23/03:30pm 16.4 11.5 6.7 52 4.8 WNW 22 28 12 15 - - 0.0
23/03:20pm 15.7 11.1 6.5 54 4.5 NW 20 26 11 14 - - 0.0
23/03:10pm 16.5 12.6 7.3 54 4.6 NW 17 20 9 11 - - 0.0
23/03:00pm 16.9 13.0 7.1 52 4.9 NW 17 22 9 12 - - 0.0
23/02:50pm 16.1 11.4 6.1 51 4.9 WNW 20 26 11 14 - - 0.0
23/02:40pm 16.0 12.3 6.4 53 4.7 NW 15 20 8 11 - - 0.0
23/02:30pm 16.3 11.7 6.6 52 4.8 NW 20 24 11 13 - - 0.0
23/02:20pm 16.1 11.5 6.6 53 4.7 NW 20 26 11 14 - - 0.0
23/02:10pm 16.4 12.8 6.7 52 4.8 NW 15 19 8 10 - - 0.0
23/02:00pm 15.8 11.7 6.1 52 4.7 WNW 17 22 9 12 - - 0.0
23/01:50pm 15.2 10.6 5.8 53 4.5 W 19 22 10 12 - - 0.0
23/01:40pm 14.5 10.4 6.0 56 4.1 WNW 17 19 9 10 - - 0.0
23/01:30pm 14.4 9.9 6.0 57 4.0 NW 19 22 10 12 - - 0.0
23/01:20pm 14.3 9.5 5.8 56 4.0 NW 20 24 11 13 - - 0.0
23/01:10pm 14.4 9.6 5.5 55 4.2 WNW 20 26 11 14 - - 0.0
23/01:00pm 14.7 9.8 5.2 53 4.5 WNW 20 24 11 13 - - 0.0
23/12:50pm 14.7 10.4 5.1 52 4.5 NW 17 20 9 11 - - 0.0
23/12:40pm 14.6 10.1 4.4 50 4.7 NW 17 22 9 12 - - 0.0
23/12:30pm 14.4 10.0 4.5 51 4.6 WNW 17 22 9 12 - - 0.0
23/12:20pm 14.5 10.0 4.0 49 4.8 WNW 17 20 9 11 - - 0.0
23/12:10pm 14.6 9.5 3.9 48 4.9 WNW 20 24 11 13 - - 0.0
23/12:00pm 14.4 9.5 4.2 50 4.7 WNW 19 24 10 13 - - 0.0
23/11:50am 14.3 9.4 4.0 50 4.7 WNW 19 24 10 13 - - 0.0
23/11:40am 14.6 9.7 3.9 48 4.9 WNW 19 24 10 13 - - 0.0
23/11:30am 14.8 9.8 3.6 47 5.1 WNW 19 22 10 12 - - 0.0
23/11:20am 15.5 11.0 4.2 47 5.2 NW 17 24 9 13 - - 0.0
23/11:10am 15.9 11.4 4.0 45 5.5 NW 17 20 9 11 - - 0.0
23/11:00am 15.1 11.8 4.3 48 5.0 NNW 11 17 6 9 - - 0.0
23/10:50am 14.6 11.7 4.7 51 4.6 N 9 15 5 8 - - 0.0
23/10:40am 14.3 10.5 3.9 49 4.8 N 13 19 7 10 - - 0.0
23/10:30am 14.2 10.4 4.1 50 4.6 N 13 15 7 8 - - 0.0
23/10:20am 13.8 10.1 4.3 52 4.4 N 13 15 7 8 - - 0.0
23/10:10am 13.8 10.1 4.6 54 4.2 N 13 17 7 9 - - 0.0
23/10:00am 14.0 10.3 4.5 52 4.4 NNE 13 15 7 8 - - 0.0
23/09:50am 14.1 10.4 4.6 52 4.4 NNE 13 15 7 8 - - 0.0
23/09:40am 13.7 10.4 4.8 55 4.1 N 11 15 6 8 - - 0.0
23/09:30am 13.9 10.6 4.4 52 4.4 N 11 13 6 7 - - 0.0
23/09:20am 14.4 11.6 5.2 54 4.3 N 9 11 5 6 - - 0.0
23/09:10am 13.4 10.6 5.3 58 3.8 N 9 11 5 6 - - 0.0
23/09:00am 13.1 10.3 5.1 58 3.7 N 9 11 5 6 - - 0.0
23/08:50am 12.4 9.7 5.8 64 3.1 N 9 11 5 6 - - 0.0
23/08:40am 11.1 8.2 6.3 72 2.3 NNW 11 11 6 6 - - 0.0
23/08:30am 10.3 7.7 6.2 76 1.9 N 9 11 5 6 - - 0.0
23/08:20am 10.1 7.6 6.4 78 1.7 N 9 11 5 6 - - 0.0
23/08:10am 9.9 7.5 7.0 82 1.4 N 9 11 5 6 - - 0.0
23/08:00am 9.4 7.4 7.1 85 1.1 N 7 9 4 5 - - 0.0
23/07:50am 8.8 6.9 6.9 88 0.9 N 6 7 3 4 - - 0.0
23/07:40am 8.2 6.2 6.4 88 0.8 N 6 7 3 4 - - 0.0
23/07:30am 7.8 6.1 6.0 88 0.8 NNW 4 6 2 3 - - 0.0
23/07:20am 7.2 5.8 5.4 88 0.8 W 2 4 1 2 - - 0.0
23/07:10am 6.9 5.4 5.1 88 0.8 N 2 2 1 1 - - 0.0
23/07:00am 6.5 4.9 4.7 88 0.8 NW 2 4 1 2 - - 0.0
23/06:50am 6.4 4.4 4.5 88 0.8 NNW 4 6 2 3 - - 0.0
23/06:40am 6.5 4.5 4.6 88 0.8 N 4 6 2 3 - - 0.0
23/06:30am 6.7 4.2 4.8 88 0.8 N 7 7 4 4 - - 0.0
23/06:20am 6.6 4.1 4.7 88 0.8 N 7 7 4 4 - - 0.0
23/06:10am 6.4 3.9 4.6 88 0.8 N 7 7 4 4 - - 0.0
23/06:00am 6.1 3.7 4.2 88 0.8 NNE 6 6 3 3 - - 0.0
23/05:50am 5.8 3.7 3.8 87 0.8 E 4 4 2 2 - - 0.0
23/05:40am 6.0 3.9 4.0 87 0.8 N 4 6 2 3 - - 0.0
23/05:30am 6.0 3.5 4.0 87 0.8 NW 6 7 3 4 - - 0.0
23/05:20am 5.7 3.0 3.7 87 0.8 WSW 7 9 4 5 - - 0.0
23/05:10am 6.1 3.6 3.9 86 0.9 SW 6 7 3 4 - - 0.0
23/05:00am 7.4 5.1 5.0 85 1.1 NW 6 7 3 4 - - 0.0
23/04:50am 7.4 4.9 5.0 85 1.1 NNW 7 7 4 4 - - 0.0
23/04:40am 7.4 4.9 5.0 85 1.1 NNW 7 9 4 5 - - 0.0
23/04:30am 7.4 4.9 5.0 85 1.1 N 7 9 4 5 - - 0.0
23/04:20am 7.2 4.7 4.9 85 1.0 N 7 9 4 5 - - 0.0
23/04:10am 7.2 4.7 5.0 86 1.0 N 7 9 4 5 - - 0.0
23/04:00am 7.2 5.3 4.8 85 1.1 N 4 7 2 4 - - 0.0
23/03:50am 7.4 5.5 4.9 84 1.1 N 4 6 2 3 - - 0.0
23/03:40am 7.4 5.5 4.9 84 1.1 NNW 4 4 2 2 - - 0.0
23/03:30am 7.7 5.4 5.0 83 1.2 NNW 6 7 3 4 - - 0.0
23/03:20am 7.9 5.1 5.2 83 1.2 NW 9 9 5 5 - - 0.0
23/03:10am 8.1 5.7 5.3 82 1.3 NNW 7 9 4 5 - - 0.0
23/03:00am 8.2 5.8 5.3 82 1.3 NNW 7 7 4 4 - - 0.0
23/02:50am 8.2 5.8 5.2 81 1.3 NW 7 9 4 5 - - 0.0
23/02:40am 8.3 5.1 5.1 80 1.4 NNW 11 11 6 6 - - 0.0
23/02:30am 8.4 5.6 5.1 80 1.5 NNW 9 11 5 6 - - 0.0
23/02:20am 8.4 6.0 5.1 80 1.5 N 7 9 4 5 - - 0.0
23/02:10am 8.4 6.0 5.1 80 1.5 N 7 9 4 5 - - 0.0
23/02:00am 8.3 5.5 5.0 80 1.5 NNW 9 9 5 5 - - 0.0
23/01:50am 8.3 5.5 5.1 80 1.4 N 9 9 5 5 - - 0.0
23/01:40am 8.2 5.4 5.2 81 1.3 NNW 9 9 5 5 - - 0.0
23/01:30am 8.1 5.3 5.3 82 1.3 NNW 9 11 5 6 - - 0.0
23/01:20am 7.9 5.1 5.3 84 1.2 NNW 9 9 5 5 - - 0.0
23/01:10am 7.6 4.8 5.2 85 1.1 N 9 9 5 5 - - 0.0
23/01:00am 7.5 5.3 5.3 86 1.0 N 6 7 3 4 - - 0.0
23/12:50am 7.3 5.5 5.3 87 0.9 N 4 4 2 2 - - 0.0
23/12:40am 7.2 5.7 5.1 86 0.9 NNE 2 2 1 1 - - 0.0
23/12:30am 7.2 5.7 5.0 86 1.0 E 2 4 1 2 - - 0.0
23/12:20am 7.3 5.8 5.0 85 1.0 ENE 2 4 1 2 - - 0.0
23/12:10am 7.3 5.8 4.9 85 1.1 NW 2 4 1 2 - - 0.0
23/12:00am 7.3 5.4 4.9 85 1.1 NW 4 4 2 2 - - 0.0
 
Date/Time
EDT
Temp
°C
App
Temp
°C
Dew
Point
°C
Rel
Hum
%
Delta-T
°C
Wind Press
QNH
hPa
Press
MSL
hPa
Rain since
9am
mm
Dir  Spd
km/h
Gust
km/h
Spd
kts
Gust
kts
22/11:50pm 7.3 5.4 4.8 84 1.1 NNW 4 6 2 3 - - 0.0
22/11:40pm 7.1 5.5 4.6 84 1.1 NNE 2 4 1 2 - - 0.0
22/11:30pm 6.9 5.3 4.4 84 1.1 WNW 2 4 1 2 - - 0.0
22/11:20pm 6.9 4.9 4.4 84 1.1 WNW 4 6 2 3 - - 0.0
22/11:10pm 6.6 4.5 4.0 83 1.1 WNW 4 4 2 2 - - 0.0
22/11:00pm 6.6 4.9 3.9 83 1.2 ENE 2 4 1 2 - - 0.0
22/10:50pm 6.6 4.1 3.9 83 1.2 SSE 6 6 3 3 - - 0.0
22/10:40pm 6.3 3.8 3.6 83 1.1 S 6 6 3 3 - - 0.0
22/10:30pm 6.1 3.4 3.5 83 1.1 SSW 7 9 4 5 - - 0.0
22/10:20pm 6.2 3.5 3.6 83 1.1 SSW 7 9 4 5 - - 0.0
22/10:10pm 6.3 3.6 3.6 83 1.1 SSW 7 9 4 5 - - 0.0
22/10:00pm 6.2 3.1 3.7 84 1.1 SSW 9 11 5 6 - - 0.0
22/09:50pm 6.0 2.9 3.5 84 1.0 S 9 13 5 7 - - 0.0
22/09:40pm 6.0 2.5 3.5 84 1.0 SW 11 13 6 7 - - 0.0
22/09:30pm 6.2 2.7 3.4 82 1.2 SSW 11 13 6 7 - - 0.0
22/09:20pm 6.3 3.2 3.5 82 1.2 SSW 9 11 5 6 - - 0.0
22/09:10pm 6.3 2.8 3.3 81 1.3 SW 11 13 6 7 - - 0.0
22/09:00pm 6.6 2.7 3.5 80 1.3 SW 13 13 7 7 - - 0.0
22/08:50pm 6.7 3.6 3.6 80 1.3 SSW 9 11 5 6 - - 0.0
22/08:40pm 7.0 3.5 3.6 79 1.4 SSW 11 11 6 6 - - 0.0
22/08:30pm 7.3 3.4 3.6 77 1.6 SW 13 13 7 7 - - 0.0
22/08:20pm 7.8 3.9 3.6 75 1.8 SW 13 15 7 8 - - 0.0
22/08:10pm 8.2 4.7 3.5 72 2.0 SSW 11 13 6 7 - - 0.0
22/08:00pm 8.5 5.0 3.6 71 2.1 SSW 11 13 6 7 - - 0.0
22/07:50pm 8.9 5.4 3.7 70 2.3 SSW 11 11 6 6 - - 0.0
22/07:40pm 9.4 5.6 3.7 67 2.5 S 13 15 7 8 - - 0.0
22/07:30pm 10.0 5.4 3.9 66 2.7 S 17 20 9 11 - - 0.0
22/07:20pm 10.6 6.1 4.1 64 2.9 SSE 17 19 9 10 - - 0.0
22/07:10pm 11.1 5.9 3.8 61 3.2 SSE 20 24 11 13 - - 0.0
22/07:00pm 11.4 5.8 3.7 59 3.4 SSE 22 26 12 14 - - 0.0
22/06:50pm 11.8 6.2 3.5 57 3.7 SSE 22 26 12 14 - - 0.0
22/06:40pm 12.1 6.9 3.5 55 3.8 SSE 20 24 11 13 - - 0.0
22/06:30pm 12.4 6.7 3.0 52 4.1 SSE 22 26 12 14 - - 0.0
22/06:20pm 12.6 6.6 3.2 52 4.2 SSE 24 28 13 15 - - 0.0
22/06:10pm 13.0 7.3 2.9 50 4.5 SSE 22 26 12 14 - - 0.0
22/06:00pm 13.4 7.7 3.0 49 4.6 SSE 22 26 12 14 - - 0.0
22/05:50pm 13.6 7.9 2.6 47 4.9 SSE 22 26 12 14 - - 0.0
22/05:40pm 14.0 8.2 2.2 45 5.2 SSE 22 28 12 15 - - 0.0
22/05:30pm 14.0 7.8 2.3 45 5.1 SSE 24 28 13 15 - - 0.0
22/05:20pm 14.7 9.4 2.8 44 5.3 SSE 20 24 11 13 - - 0.0
22/05:10pm 15.0 9.9 3.2 45 5.3 SSE 19 22 10 12 - - 0.0
22/05:00pm 15.3 10.1 3.6 45 5.4 SSE 20 24 11 13 - - 0.0
22/04:50pm 15.7 11.1 3.7 44 5.5 SSE 17 28 9 15 - - 0.0
22/04:40pm 16.0 10.5 3.8 44 5.6 S 22 28 12 15 - - 0.0
22/04:30pm 16.4 11.9 4.4 45 5.6 S 17 20 9 11 - - 0.0
22/04:20pm 16.7 12.7 4.8 45 5.6 SSE 15 20 8 11 - - 0.0
22/04:10pm 16.9 14.3 4.2 43 6.0 SE 7 19 4 10 - - 0.0
22/04:00pm 16.3 13.8 4.6 46 5.5 SSE 7 17 4 9 - - 0.0
22/03:50pm 16.7 13.5 4.9 45 5.6 SW 11 19 6 10 - - 0.0
22/03:40pm 16.1 11.9 1.6 37 6.4 SW 13 19 7 10 - - 0.0
22/03:30pm 15.7 12.1 2.7 41 5.9 W 11 17 6 9 - - 0.0
22/03:20pm 16.0 13.2 3.1 42 5.9 WSW 7 11 4 6 - - 0.0
22/03:10pm 16.1 12.9 3.3 42 5.9 SW 9 13 5 7 - - 0.0
22/03:00pm 16.2 12.5 2.5 39 6.2 WNW 11 17 6 9 - - 0.0
22/02:50pm 16.4 12.9 3.3 41 6.0 W 11 17 6 9 - - 0.0
22/02:40pm 16.3 12.3 2.6 39 6.2 WNW 13 19 7 10 - - 0.0
22/02:30pm 16.1 11.3 2.5 40 6.1 WNW 17 19 9 10 - - 0.0
22/02:20pm 15.8 11.8 2.9 42 5.8 WNW 13 19 7 10 - - 0.0
22/02:10pm 15.2 10.8 2.6 42 5.6 NW 15 20 8 11 - - 0.0
22/02:00pm 15.1 10.4 2.9 44 5.5 WNW 17 19 9 10 - - 0.0
22/01:50pm 15.6 10.9 3.1 43 5.7 W 17 20 9 11 - - 0.0
22/01:40pm 16.3 11.9 2.7 40 6.2 NW 15 20 8 11 - - 0.0
22/01:30pm 16.0 10.9 3.1 42 5.9 WNW 19 22 10 12 - - 0.0
22/01:20pm 16.3 11.3 3.6 42 5.9 WNW 19 22 10 12 - - 0.0
22/01:10pm 15.7 11.3 2.7 41 5.9 W 15 19 8 10 - - 0.0
22/01:00pm 16.3 11.2 3.1 41 6.0 WNW 19 26 10 14 - - 0.0
22/12:50pm 15.6 11.2 2.6 41 5.8 W 15 20 8 11 - - 0.0
22/12:40pm 15.7 10.5 2.5 41 5.9 W 19 22 10 12 - - 0.0
22/12:30pm 15.2 10.5 3.2 44 5.4 WSW 17 20 9 11 - - 0.0
22/12:20pm 14.6 10.2 2.5 44 5.4 W 15 24 8 13 - - 0.0
22/12:10pm 15.5 11.1 2.9 42 5.7 WNW 15 20 8 11 - - 0.0
22/12:00pm 14.6 11.8 3.2 46 5.1 W 7 15 4 8 - - 0.0
22/11:50am 14.5 9.8 3.2 46 5.1 W 17 22 9 12 - - 0.0
22/11:40am 15.9 12.0 3.6 44 5.7 W 13 15 7 8 - - 0.0
22/11:30am 15.0 11.5 3.3 45 5.3 WNW 11 15 6 8 - - 0.0
22/11:20am 14.1 10.7 3.8 50 4.7 WNW 11 15 6 8 - - 0.0
22/11:10am 14.9 11.0 3.2 45 5.3 W 13 17 7 9 - - 0.0
22/11:00am 13.9 10.5 3.8 50 4.6 W 11 13 6 7 - - 0.0
22/10:50am 13.6 10.2 3.9 52 4.4 WSW 11 17 6 9 - - 0.0
22/10:40am 12.9 9.8 3.8 54 4.1 W 9 15 5 8 - - 0.0
22/10:30am 12.7 10.0 3.8 54 4.0 WNW 7 15 4 8 - - 0.0
22/10:20am 12.5 9.5 4.1 56 3.8 W 9 15 5 8 - - 0.0
22/10:10am 13.0 9.8 4.9 58 3.7 W 11 15 6 8 - - 0.0
22/10:00am 13.1 10.7 5.2 58 3.7 N 7 11 4 6 - - 0.2
22/09:50am 12.6 10.5 5.7 63 3.2 NW 6 9 3 5 - - 0.2
22/09:40am 11.7 9.4 5.6 66 2.8 WNW 7 11 4 6 - - 0.2
22/09:30am 11.9 9.6 5.7 66 2.9 W 7 13 4 7 - - 0.2
22/09:20am 11.7 9.0 5.7 66 2.8 NW 9 17 5 9 - - 0.2
22/09:10am 11.7 9.0 5.8 67 2.7 N 9 11 5 6 - - 0.2
22/09:00am 11.6 9.6 6.9 73 2.2 N 7 11 4 6 - - 0.2
22/08:50am 11.4 9.7 8.4 82 1.5 N 7 11 4 6 - - 0.2
22/08:40am 10.8 9.2 8.6 86 1.1 N 7 9 4 5 - - 0.2
22/08:30am 10.3 8.3 8.6 89 0.8 N 9 11 5 6 - - 0.2
22/08:20am 10.5 8.6 9.0 90 0.7 N 9 9 5 5 - - 0.2
22/08:10am 9.8 7.7 8.2 90 0.8 N 9 11 5 6 - - 0.2
22/08:00am 9.4 7.6 8.1 92 0.6 N 7 7 4 4 - - 0.2
22/07:50am 9.3 8.1 8.0 92 0.6 N 4 6 2 3 - - 0.2
22/07:40am 9.2 8.0 8.0 92 0.6 N 4 4 2 2 - - 0.2
22/07:30am 9.0 7.4 7.8 92 0.6 N 6 6 3 3 - - 0.2
22/07:20am 8.2 6.1 6.8 91 0.6 N 7 7 4 4 - - 0.2
22/07:10am 7.6 5.6 6.3 91 0.6 NW 6 6 3 3 - - 0.2
22/07:00am 6.6 4.2 5.4 92 0.5 NW 7 7 4 4 - - 0.2
22/06:50am 6.6 4.2 5.4 92 0.5 NW 7 7 4 4 - - 0.2
22/06:40am 6.8 4.7 5.7 93 0.5 NNW 6 7 3 4 - - 0.2
22/06:30am 6.9 4.8 5.8 93 0.5 N 6 6 3 3 - - 0.2
22/06:20am 6.8 4.7 5.7 93 0.5 N 6 7 3 4 - - 0.2
22/06:10am 6.6 4.4 5.4 92 0.5 NW 6 6 3 3 - - 0.2
22/06:00am 7.1 5.0 5.9 92 0.5 NW 6 7 3 4 - - 0.2
22/05:50am 7.1 5.0 6.0 93 0.5 NNW 6 7 3 4 - - 0.2
22/05:40am 7.2 5.0 6.0 92 0.5 N 7 9 4 5 - - 0.2
22/05:30am 7.0 4.7 5.9 93 0.5 N 7 7 4 4 - - 0.2

Other formats

Comma delimited format used in spreadsheet applications
http://www.bom.gov.au/fwo/IDT60801/IDT60801.99142.axf

JavaScript Object Notation format (JSON) in row-major order
http://www.bom.gov.au/fwo/IDT60801/IDT60801.99142.json

Data quality

Most of these data are generated automatically and are frequently updated. Quality checks on data are not normally performed. It is possible for incorrect values to appear. Refer to information at About Latest Weather Observations and please check the disclaimer before using these data.